Terminal Aerodrome Forecast
Issued by NWS

Home | Current Version | Previous Version | Text Only | Print | Product List | Glossary On
Versions: 1 2 3 4 5 6 7 8 9 10 11 12 13 14 15 16 17 18
000
FTUS43 KLSX 231400 AAB
TAFCPS
TAF AMD
KCPS 231439Z 2315/2412 35010KT P6SM BKN015 BKN050
     FM231600 01011KT P6SM BKN020
     FM231800 01011KT P6SM SCT040
     FM240100 01005KT P6SM SKC=

USA.gov is the U.S. government's official web portal to all federal, state and local government web resources and services.